Latest Weather Observations for Oenpelli Airport

IDD60801

Issued at 9:01 pm CST Wednesday 26 April 2017 (issued every 30 minutes, with the page automatically refreshed every 10 minutes)

About weather observations | Map of weather stations | Latest weather observations for NT | Other Formats
Station Details ID: 014310 Name: OENPELLI AIRPORT Lat: -12.33 Lon: 133.01 Height: 7.5 m
Data from the previous 72 hours. | See also: Recent months at Oenpelli Airport
Date/Time
CST
Temp
°C
App
Temp
°C
Dew
Point
°C
Rel
Hum
%
Delta-T
°C
Wind Press
QNH
hPa
Press
MSL
hPa
Rain since
9am
mm
Dir  Spd
km/h
Gust
km/h
Spd
kts
Gust
kts
26/09:00pm 26.0 25.5 17.9 61 5.1 ENE 17 30 9 16 1010.8 1010.7 0.0
26/08:30pm 26.2 25.5 18.6 63 4.8 ENE 20 33 11 18 1010.5 1010.4 0.0
26/08:00pm 26.6 25.8 19.2 64 4.8 ENE 22 39 12 21 1010.5 1010.4 0.0
26/07:30pm 27.1 26.7 19.4 62 5.0 ENE 20 37 11 20 1010.4 1010.3 0.0
26/07:00pm 27.1 28.0 21.6 72 3.7 ENE 19 24 10 13 1010.3 1010.2 0.0
26/06:30pm 27.1 29.1 22.3 75 3.2 ENE 15 20 8 11 1010.0 1009.9 0.0
26/06:00pm 27.1 29.4 22.1 74 3.4 ENE 13 20 7 11 1009.9 1009.8 0.0
26/05:30pm 27.7 29.9 22.6 74 3.5 NE 15 22 8 12 1009.6 1009.5 0.0
26/05:00pm 28.0 30.9 22.5 72 3.7 NE 11 20 6 11 1009.1 1009.0 0.0
26/04:30pm 28.5 28.8 21.5 66 4.7 NE 22 32 12 17 1008.6 1008.5 0.0
26/04:00pm 29.4 30.0 22.1 65 4.9 ENE 22 32 12 17 1008.3 1008.2 0.0
26/03:30pm 30.5 32.4 22.7 63 5.3 NE 17 24 9 13 1008.2 1008.1 0.0
26/03:00pm 30.5 31.8 22.4 62 5.5 NE 19 26 10 14 1008.4 1008.3 0.0
26/02:30pm 30.4 31.1 22.3 62 5.5 NE 22 30 12 16 1008.8 1008.7 0.0
26/02:00pm 30.1 32.5 22.3 63 5.3 NE 13 20 7 11 1008.8 1008.7 0.0
26/01:30pm 29.8 30.7 22.0 63 5.3 NE 20 28 11 15 1009.2 1009.1 0.0
26/01:00pm 30.2 30.3 21.8 60 5.7 NNE 24 35 13 19 1009.8 1009.7 0.0
26/12:30pm 30.4 30.7 22.3 62 5.5 NNE 24 39 13 21 1010.3 1010.2 0.0
26/12:00pm 29.7 30.2 21.9 63 5.3 NE 22 41 12 22 1010.6 1010.5 0.0
26/11:30am 29.3 29.8 22.0 64 4.9 ENE 22 35 12 19 1010.8 1010.7 0.0
26/11:00am 29.1 31.4 22.8 69 4.3 ENE 15 24 8 13 1011.1 1011.0 0.0
26/10:30am 28.9 31.3 22.9 70 4.1 NE 15 24 8 13 1011.5 1011.4 0.0
26/10:00am 28.9 29.9 22.2 67 4.5 NE 20 33 11 18 1011.8 1011.7 0.0
26/09:30am 29.0 30.2 22.2 66 4.6 NE 19 30 10 16 1011.5 1011.4 0.0
26/09:00am 28.3 31.5 23.0 73 3.6 ENE 11 19 6 10 1011.1 1011.0 0.0
26/08:30am 28.0 30.5 23.2 75 3.3 ENE 15 28 8 15 1010.9 1010.8 0.0
26/08:00am 27.4 29.9 23.2 78 2.9 ENE 15 24 8 13 1010.5 1010.4 0.0
26/07:30am 26.9 29.8 23.2 80 2.5 E 13 24 7 13 1009.9 1009.8 0.0
26/07:00am 26.6 29.6 23.3 82 2.3 E 13 22 7 12 1009.8 1009.7 0.0
26/06:30am 26.6 29.1 23.1 81 2.4 E 15 24 8 13 1009.6 1009.5 0.0
26/06:00am 26.8 29.7 23.1 80 2.5 E 13 20 7 11 1009.6 1009.5 0.0
26/05:30am 26.8 29.7 23.1 80 2.5 ENE 13 20 7 11 1009.7 1009.6 0.0
26/05:00am 27.0 30.2 23.0 79 2.7 E 11 17 6 9 1009.4 1009.3 0.0
26/04:30am 26.8 30.4 23.1 80 2.5 E 9 13 5 7 1009.3 1009.2 0.0
26/04:00am 26.6 30.1 22.9 80 2.5 ENE 9 15 5 8 1009.3 1009.2 0.0
26/03:30am 26.7 30.5 22.8 79 2.6 ENE 7 13 4 7 1009.2 1009.1 0.0
26/03:00am 26.6 30.2 22.4 78 2.8 ENE 7 11 4 6 1009.4 1009.3 0.0
26/02:30am 26.7 31.3 22.5 78 2.8 ENE 2 6 1 3 1009.8 1009.7 0.0
26/02:00am 27.0 31.0 22.8 78 2.8 E 6 9 3 5 1010.0 1009.9 0.0
26/01:30am 26.7 30.7 22.8 79 2.6 E 6 9 3 5 1010.3 1010.2 0.0
26/01:00am 26.7 31.1 22.8 79 2.6 E 4 7 2 4 1010.5 1010.4 0.0
26/12:30am 26.1 30.9 22.8 82 2.2 ENE 2 4 1 2 1010.6 1010.5 0.0
26/12:00am 26.7 31.3 22.5 78 2.8 NE 2 4 1 2 1010.7 1010.6 0.0
 
Date/Time
CST
Temp
°C
App
Temp
°C
Dew
Point
°C
Rel
Hum
%
Delta-T
°C
Wind Press
QNH
hPa
Press
MSL
hPa
Rain since
9am
mm
Dir  Spd
km/h
Gust
km/h
Spd
kts
Gust
kts
25/11:30pm 27.3 31.2 22.5 75 3.2 ENE 6 7 3 4 1010.8 1010.7 0.0
25/11:00pm 27.5 31.3 22.7 75 3.3 E 7 11 4 6 1010.9 1010.8 0.0
25/10:30pm 27.4 31.4 22.8 76 3.1 E 6 9 3 5 1011.0 1010.9 0.0
25/10:00pm 27.2 31.9 22.6 76 3.1 ENE 2 7 1 4 1011.1 1011.0 0.0
25/09:30pm 27.7 31.5 22.4 73 3.6 ENE 6 9 3 5 1011.2 1011.1 0.0
25/09:00pm 27.9 31.5 22.4 72 3.7 ENE 7 13 4 7 1011.2 1011.1 0.0
25/08:30pm 27.8 31.4 22.3 72 3.7 ENE 7 11 4 6 1010.8 1010.7 0.0
25/08:00pm 28.1 31.4 21.9 69 4.2 ENE 7 13 4 7 1010.4 1010.3 0.0
25/07:30pm 28.5 31.4 21.8 67 4.5 ENE 9 13 5 7 1010.1 1010.0 0.0
25/07:00pm 28.7 32.3 22.4 68 4.3 E 7 13 4 7 1009.9 1009.8 0.0
25/06:30pm 28.9 33.2 22.6 69 4.3 NE 4 7 2 4 1009.5 1009.4 0.0
25/06:00pm 29.6 33.2 22.3 65 5.0 NE 7 13 4 7 1009.3 1009.2 0.0
25/05:30pm 29.6 33.2 22.1 64 5.1 ENE 6 9 3 5 1009.1 1009.0 0.0
25/05:00pm 29.6 30.7 21.3 61 5.6 NE 17 33 9 18 1009.0 1008.9 0.0
25/04:30pm 32.3 34.8 21.8 54 7.1 ENE 11 17 6 9 1008.6 1008.5 0.0
25/04:00pm 31.9 33.8 21.4 53 7.1 NE 13 20 7 11 1008.6 1008.5 0.0
25/03:30pm 31.7 33.0 20.9 52 7.2 NE 15 22 8 12 1008.6 1008.5 0.0
25/03:00pm 31.9 32.8 20.8 51 7.4 ENE 17 26 9 14 1008.7 1008.6 0.0
25/02:30pm 31.3 33.7 22.3 58 6.1 NNE 13 24 7 13 1008.7 1008.6 0.0
25/02:00pm 31.3 33.3 22.3 58 6.1 NNE 15 22 8 12 1009.2 1009.1 0.0
25/01:30pm 31.3 33.5 21.8 57 6.4 NNE 13 19 7 10 1009.7 1009.6 0.0
25/01:00pm 30.8 32.8 21.6 58 6.2 NE 13 24 7 13 1010.1 1010.0 0.0
25/12:30pm 30.2 31.6 21.0 58 6.1 NE 15 22 8 12 1010.4 1010.3 0.0
25/12:00pm 30.2 32.5 20.7 56 6.3 ENE 9 13 5 7 1010.9 1010.8 0.0
25/11:30am 29.8 32.6 20.9 59 5.9 E 7 13 4 7 1011.5 1011.4 0.0
25/11:00am 29.7 31.3 20.0 56 6.4 ENE 11 15 6 8 1011.9 1011.8 0.0
25/10:30am 29.4 31.4 20.0 57 6.2 ENE 9 17 5 9 1012.2 1012.1 0.0
25/10:00am 28.9 32.3 21.7 65 4.8 ENE 6 9 3 5 1012.2 1012.1 0.0
25/09:30am 28.2 32.3 22.2 70 4.0 E 4 7 2 4 1012.0 1011.9 0.0
25/09:00am 27.5 32.3 22.9 76 3.1 ESE 2 6 1 3 1012.0 1011.9 0.0
25/08:30am 26.8 31.6 23.5 82 2.3 E 4 6 2 3 1011.7 1011.6 0.0
25/08:00am 25.9 31.3 23.9 89 1.4 E 2 6 1 3 1011.7 1011.6 0.0
25/07:30am 25.1 30.7 24.2 95 0.6 SSE 2 4 1 2 1011.2 1011.1 0.0
25/07:00am 24.5 29.9 23.3 93 0.8 CALM 0 0 0 0 1010.7 1010.6 0.0
25/06:30am 24.6 30.1 23.4 93 0.8 CALM 0 0 0 0 1010.3 1010.2 0.0
25/06:00am 24.6 30.0 23.2 92 0.9 CALM 0 0 0 0 1010.2 1010.1 0.0
25/05:30am 24.7 30.0 23.1 91 1.1 CALM 0 0 0 0 1009.8 1009.7 0.0
25/05:00am 25.2 30.6 23.3 89 1.3 CALM 0 0 0 0 1009.8 1009.7 0.0
25/04:30am 25.3 30.6 23.0 87 1.6 CALM 0 0 0 0 1009.7 1009.6 0.0
25/04:00am 25.1 30.5 23.3 90 1.2 CALM 0 2 0 1 1009.5 1009.4 0.0
25/03:30am 25.6 30.9 23.1 86 1.7 CALM 0 2 0 1 1009.5 1009.4 0.0
25/03:00am 25.7 30.9 22.8 84 2.0 CALM 0 2 0 1 1009.7 1009.6 0.0
25/02:30am 26.4 31.1 22.7 80 2.5 ENE 2 4 1 2 1009.9 1009.8 0.0
25/02:00am 26.9 30.9 22.7 78 2.8 ENE 6 11 3 6 1010.1 1010.0 0.0
25/01:30am 27.0 30.7 22.6 77 3.0 E 7 11 4 6 1010.5 1010.4 0.0
25/01:00am 27.1 31.1 22.7 77 3.0 E 6 9 3 5 1010.9 1010.8 0.0
25/12:30am 27.0 30.8 22.8 78 2.8 E 7 11 4 6 1011.3 1011.2 0.0
25/12:00am 26.3 32.1 24.0 87 1.6 CALM 0 0 0 0 1011.6 1011.5 0.0
 
Date/Time
CST
Temp
°C
App
Temp
°C
Dew
Point
°C
Rel
Hum
%
Delta-T
°C
Wind Press
QNH
hPa
Press
MSL
hPa
Rain since
9am
mm
Dir  Spd
km/h
Gust
km/h
Spd
kts
Gust
kts
24/11:30pm 26.5 32.2 23.8 85 1.9 CALM 0 0 0 0 1012.0 1011.9 0.0
24/11:00pm 26.9 32.6 23.8 83 2.1 CALM 0 0 0 0 1012.2 1012.1 0.0
24/10:30pm 26.5 32.6 24.5 89 1.4 CALM 0 0 0 0 1012.7 1012.6 0.0
24/10:00pm 26.2 32.4 24.6 91 1.1 CALM 0 0 0 0 1012.8 1012.7 0.0
24/09:30pm 26.3 31.9 24.3 89 1.4 NNE 2 4 1 2 1012.7 1012.6 0.0
24/09:00pm 26.2 30.8 24.2 89 1.4 N 7 11 4 6 1012.5 1012.4 0.0
24/08:30pm 26.2 31.8 24.2 89 1.4 NNE 2 6 1 3 1012.2 1012.1 0.0
24/08:00pm 26.1 30.3 24.1 89 1.4 NNE 9 13 5 7 1011.5 1011.4 0.0
24/07:30pm 25.9 - - - - NE 13 22 7 12 1010.9 1010.8 0.0
24/07:00pm 26.0 - - - - NNE 20 32 11 17 1010.8 1010.7 0.0
24/06:30pm 29.7 - - - - N 17 41 9 22 1010.3 1010.2 0.0
24/06:00pm 31.3 - - - - N 6 9 3 5 1009.5 1009.4 0.0
24/05:30pm 32.2 - - - - ENE 6 7 3 4 1009.0 1008.9 0.0
24/05:00pm 32.9 - - - - ENE 9 13 5 7 1008.4 1008.3 0.0
24/04:30pm 33.5 - - - - E 6 11 3 6 1008.3 1008.2 0.0
24/04:00pm 32.9 - - - - E 7 11 4 6 1008.4 1008.3 0.0
24/03:30pm 33.0 - - - - NE 13 20 7 11 1008.6 1008.5 0.0
24/03:00pm 33.3 - - - - ENE 11 20 6 11 1008.6 1008.5 0.0
24/02:30pm 34.3 - - - - NNE 13 22 7 12 1008.8 1008.7 0.0
24/02:00pm 34.2 - - - - NNE 13 22 7 12 1009.3 1009.2 0.0
24/01:30pm 34.0 - - - - NNE 13 20 7 11 1009.7 1009.6 0.0
24/01:00pm 33.6 - - - - NNE 15 22 8 12 1010.1 1010.0 0.0
24/12:30pm 32.6 - - - - NE 15 24 8 13 1010.6 1010.5 0.0
24/12:00pm 32.2 - - - - NNE 15 22 8 12 1011.2 1011.1 0.0
24/11:30am 33.0 - - - - NE 15 22 8 12 1011.8 1011.7 0.0
24/11:00am 32.4 - - - - NE 13 22 7 12 1012.0 1011.9 0.0
24/10:30am 31.1 - - - - ENE 11 19 6 10 1012.4 1012.3 0.0
24/10:00am 30.3 - - - - ENE 11 17 6 9 1012.5 1012.4 0.0
24/09:30am 29.5 - - - - ENE 13 19 7 10 1012.2 1012.1 0.0
24/09:00am 29.0 - - - - E 11 17 6 9 1012.2 1012.1 0.0
24/08:30am 27.8 - - - - E 7 13 4 7 1011.9 1011.8 0.0
24/08:00am 27.4 - - - - CALM 0 6 0 3 1011.8 1011.7 0.0
24/07:30am 25.6 - - - - CALM 0 0 0 0 1011.5 1011.4 0.0
24/07:00am 24.6 - - - - CALM 0 4 0 2 1010.8 1010.7 0.0
24/06:30am 24.6 - - - - SE 2 6 1 3 1010.2 1010.1 0.0
24/06:00am 24.0 26.2 16.5 63 4.6 CALM 0 4 0 2 1010.0 1009.9 0.0
24/05:30am 24.4 26.8 16.9 63 4.6 CALM 0 0 0 0 1010.1 1010.0 0.0
24/05:00am 24.2 26.1 16.7 63 4.6 ESE 2 4 1 2 1010.1 1010.0 0.0
24/04:30am 24.2 26.5 16.7 63 4.6 CALM 0 0 0 0 1010.0 1009.9 0.0
24/04:00am 24.5 26.9 17.0 63 4.6 CALM 0 0 0 0 1010.0 1009.9 0.0
24/03:30am 24.6 27.0 17.1 63 4.6 CALM 0 0 0 0 1010.3 1010.2 0.0
24/03:00am 25.4 27.7 17.8 62 4.8 ENE 2 4 1 2 1010.4 1010.3 0.0
24/02:30am 25.0 27.6 17.5 63 4.7 CALM 0 4 0 2 1010.7 1010.6 0.0
24/02:00am 25.4 28.1 17.8 62 4.8 CALM 0 2 0 1 1010.9 1010.8 0.0
24/01:30am 26.1 28.7 18.5 63 4.8 ENE 2 4 1 2 1011.1 1011.0 0.0
24/01:00am 26.3 28.7 18.7 63 4.9 ENE 4 6 2 3 1011.5 1011.4 0.0
24/12:30am 26.6 28.5 19.0 63 4.9 E 7 13 4 7 1011.6 1011.5 0.0
24/12:00am 26.1 28.4 18.5 63 4.8 ENE 4 6 2 3 1011.9 1011.8 0.0
 
Date/Time
CST
Temp
°C
App
Temp
°C
Dew
Point
°C
Rel
Hum
%
Delta-T
°C
Wind Press
QNH
hPa
Press
MSL
hPa
Rain since
9am
mm
Dir  Spd
km/h
Gust
km/h
Spd
kts
Gust
kts
23/11:30pm 26.3 28.7 18.7 63 4.9 NE 4 6 2 3 1012.0 1011.9 0.0
23/11:00pm 26.1 29.1 18.5 63 4.8 CALM 0 0 0 0 1012.1 1012.0 0.0
23/10:30pm 26.4 28.8 18.8 63 4.9 NE 4 6 2 3 1012.4 1012.3 0.0
23/10:00pm 26.6 28.5 19.0 63 4.9 NE 7 9 4 5 1012.5 1012.4 0.0
23/09:30pm 26.9 28.6 19.3 63 4.9 NNE 9 13 5 7 1012.6 1012.5 0.0

Other Formats:

Comma delimited format used in spreadsheet applications
http://www.bom.gov.au/fwo/IDD60801/IDD60801.94110.axf

JavaScript Object Notation format (JSON) in row-major order
http://www.bom.gov.au/fwo/IDD60801/IDD60801.94110.json